Time,TemperatureF,DewpointF,PressureIn,WindDirection,WindDirectionDegrees,WindSpeedMPH,WindSpeedGustMPH,Humidity,HourlyPrecipIn,Conditions,Clouds,dailyrainin,SoftwareType,DateUTC
2013-01-30 00:21:00,44.0,38.0,30.31,West,280,2.0,3.0,80,0.00,,,-99.99,,2013-01-30 08:21:00,
2013-01-30 00:32:00,44.0,38.0,30.31,West,280,2.0,3.0,80,0.00,,,-99.99,,2013-01-30 08:32:00,
2013-01-30 00:42:00,44.0,38.0,30.31,West,280,2.0,3.0,80,0.00,,,-99.99,,2013-01-30 08:42:00,
2013-01-30 00:52:00,44.0,38.0,30.31,West,280,2.0,3.0,80,0.00,,,-99.99,,2013-01-30 08:52:00,
2013-01-30 01:21:00,42.0,37.0,30.32,North,0,0.0,4.0,81,0.00,,,-99.99,,2013-01-30 09:21:00,
2013-01-30 01:32:00,42.0,37.0,30.32,North,0,0.0,4.0,81,0.00,,,-99.99,,2013-01-30 09:32:00,
2013-01-30 01:41:00,42.0,37.0,30.32,North,0,0.0,4.0,81,0.00,,,-99.99,,2013-01-30 09:41:00,
2013-01-30 01:51:00,42.0,37.0,30.32,North,0,0.0,4.0,81,0.00,,,-99.99,,2013-01-30 09:51:00,
2013-01-30 02:21:00,41.0,36.0,30.32,ENE,60,3.0,4.0,83,0.00,,,-99.99,,2013-01-30 10:21:00,
2013-01-30 02:31:00,41.0,36.0,30.32,ENE,60,3.0,4.0,83,0.00,,,-99.99,,2013-01-30 10:31:00,
2013-01-30 02:41:00,41.0,36.0,30.32,ENE,60,3.0,4.0,83,0.00,,,-99.99,,2013-01-30 10:41:00,
2013-01-30 02:52:00,41.0,36.0,30.32,ENE,60,3.0,4.0,83,0.00,,,-99.99,,2013-01-30 10:52:00,
2013-01-30 03:22:00,42.0,37.0,30.32,NE,50,3.0,6.0,82,0.00,,,-99.99,,2013-01-30 11:22:00,
2013-01-30 03:32:00,42.0,37.0,30.32,NE,50,3.0,6.0,82,0.00,,,-99.99,,2013-01-30 11:32:00,
2013-01-30 03:42:00,42.0,37.0,30.32,NE,50,3.0,6.0,82,0.00,,,-99.99,,2013-01-30 11:42:00,
2013-01-30 03:52:00,42.0,37.0,30.32,NE,50,3.0,6.0,82,0.00,,,-99.99,,2013-01-30 11:52:00,
2013-01-30 04:22:00,42.0,37.0,30.33,NNW,330,2.0,4.0,81,0.00,,,-99.99,,2013-01-30 12:22:00,
2013-01-30 04:32:00,42.0,37.0,30.33,NNW,330,2.0,4.0,81,0.00,,,-99.99,,2013-01-30 12:32:00,
2013-01-30 04:42:00,42.0,37.0,30.33,NNW,330,2.0,4.0,81,0.00,,,-99.99,,2013-01-30 12:42:00,
2013-01-30 05:22:00,44.0,36.0,30.33,North,0,0.0,3.0,74,0.00,,,-99.99,,2013-01-30 13:22:00,
2013-01-30 05:32:00,44.0,36.0,30.33,North,0,0.0,3.0,74,0.00,,,-99.99,,2013-01-30 13:32:00,
2013-01-30 05:42:00,44.0,36.0,30.33,North,0,0.0,3.0,74,0.00,,,-99.99,,2013-01-30 13:42:00,
2013-01-30 05:52:00,44.0,36.0,30.33,North,0,0.0,3.0,74,0.00,,,-99.99,,2013-01-30 13:52:00,
2013-01-30 06:22:00,43.0,35.0,30.37,ENE,70,3.0,3.0,74,0.00,,,-99.99,,2013-01-30 14:22:00,
2013-01-30 06:32:00,43.0,35.0,30.37,ENE,70,3.0,3.0,74,0.00,,,-99.99,,2013-01-30 14:32:00,
2013-01-30 06:42:00,43.0,35.0,30.37,ENE,70,3.0,3.0,74,0.00,,,-99.99,,2013-01-30 14:42:00,
2013-01-30 06:52:00,43.0,35.0,30.37,ENE,70,3.0,3.0,74,0.00,,,-99.99,,2013-01-30 14:52:00,
2013-01-30 07:23:00,42.0,35.0,30.40,ENE,70,1.0,4.0,76,0.00,,,-99.99,,2013-01-30 15:23:00,
2013-01-30 07:33:00,42.0,35.0,30.40,ENE,70,1.0,4.0,76,0.00,,,-99.99,,2013-01-30 15:33:00,
2013-01-30 07:43:00,42.0,35.0,30.40,ENE,70,1.0,4.0,76,0.00,,,-99.99,,2013-01-30 15:43:00,
2013-01-30 07:52:00,42.0,35.0,30.40,ENE,70,1.0,4.0,76,0.00,,,-99.99,,2013-01-30 15:52:00,
2013-01-30 08:23:00,45.0,38.0,30.40,NE,40,2.0,4.0,77,0.00,,,-99.99,,2013-01-30 16:23:00,
2013-01-30 08:32:00,45.0,38.0,30.40,NE,40,2.0,4.0,77,0.00,,,-99.99,,2013-01-30 16:32:00,
2013-01-30 08:42:00,45.0,38.0,30.40,NE,40,2.0,4.0,77,0.00,,,-99.99,,2013-01-30 16:42:00,
2013-01-30 08:52:00,45.0,38.0,30.40,NE,40,2.0,4.0,77,0.00,,,-99.99,,2013-01-30 16:52:00,
2013-01-30 09:22:00,55.0,39.0,30.40,West,280,1.0,3.0,55,0.00,,,-99.99,,2013-01-30 17:22:00,
2013-01-30 09:32:00,55.0,39.0,30.40,West,280,1.0,3.0,55,0.00,,,-99.99,,2013-01-30 17:32:00,
2013-01-30 09:42:00,55.0,39.0,30.40,West,280,1.0,3.0,55,0.00,,,-99.99,,2013-01-30 17:42:00,
2013-01-30 09:52:00,55.0,39.0,30.40,West,280,1.0,3.0,55,0.00,,,-99.99,,2013-01-30 17:52:00,
2013-01-30 10:22:00,58.0,39.0,30.41,WSW,250,1.0,5.0,50,0.00,,,-99.99,,2013-01-30 18:22:00,
2013-01-30 10:33:00,58.0,39.0,30.41,WSW,250,1.0,5.0,50,0.00,,,-99.99,,2013-01-30 18:33:00,
2013-01-30 10:42:00,58.0,39.0,30.41,WSW,250,1.0,5.0,50,0.00,,,-99.99,,2013-01-30 18:42:00,
2013-01-30 10:52:00,58.0,39.0,30.41,WSW,250,1.0,5.0,50,0.00,,,-99.99,,2013-01-30 18:52:00,
2013-01-30 11:22:00,60.0,37.0,30.41,WSW,240,3.0,5.0,43,0.00,,,-99.99,,2013-01-30 19:22:00,
2013-01-30 11:32:00,60.0,37.0,30.41,WSW,240,3.0,5.0,43,0.00,,,-99.99,,2013-01-30 19:32:00,
2013-01-30 11:42:00,60.0,37.0,30.41,WSW,240,3.0,5.0,43,0.00,,,-99.99,,2013-01-30 19:42:00,
2013-01-30 11:52:00,60.0,37.0,30.41,WSW,240,3.0,5.0,43,0.00,,,-99.99,,2013-01-30 19:52:00,
2013-01-30 12:22:00,62.0,39.0,30.36,SW,230,2.0,4.0,42,0.00,,,-99.99,,2013-01-30 20:22:00,
2013-01-30 12:33:00,62.0,39.0,30.36,SW,230,2.0,4.0,42,0.00,,,-99.99,,2013-01-30 20:33:00,
2013-01-30 12:42:00,62.0,39.0,30.36,SW,230,2.0,4.0,42,0.00,,,-99.99,,2013-01-30 20:42:00,
2013-01-30 12:52:00,62.0,39.0,30.36,SW,230,2.0,4.0,42,0.00,,,-99.99,,2013-01-30 20:52:00,
2013-01-30 13:22:00,65.0,37.0,30.33,SW,220,3.0,5.0,35,0.00,,,-99.99,,2013-01-30 21:22:00,
2013-01-30 13:32:00,65.0,37.0,30.33,SW,220,3.0,5.0,35,0.00,,,-99.99,,2013-01-30 21:32:00,
2013-01-30 13:42:00,65.0,37.0,30.33,SW,220,3.0,5.0,35,0.00,,,-99.99,,2013-01-30 21:42:00,
2013-01-30 13:52:00,65.0,37.0,30.33,SW,220,3.0,5.0,35,0.00,,,-99.99,,2013-01-30 21:52:00,
2013-01-30 14:22:00,66.0,38.0,30.30,North,0,0.0,6.0,36,0.00,,,-99.99,,2013-01-30 22:22:00,
2013-01-30 14:32:00,66.0,38.0,30.30,North,0,0.0,6.0,36,0.00,,,-99.99,,2013-01-30 22:32:00,
2013-01-30 14:41:00,66.0,38.0,30.30,North,0,0.0,6.0,36,0.00,,,-99.99,,2013-01-30 22:41:00,
2013-01-30 14:52:00,66.0,38.0,30.30,North,0,0.0,6.0,36,0.00,,,-99.99,,2013-01-30 22:52:00,
2013-01-30 15:22:00,67.0,39.0,30.30,SSW,210,1.0,8.0,36,0.00,,,-99.99,,2013-01-30 23:22:00,
2013-01-30 15:32:00,67.0,39.0,30.30,SSW,210,1.0,8.0,36,0.00,,,-99.99,,2013-01-30 23:32:00,
2013-01-30 15:42:00,67.0,39.0,30.30,SSW,210,1.0,8.0,36,0.00,,,-99.99,,2013-01-30 23:42:00,
2013-01-30 15:52:00,67.0,39.0,30.30,SSW,210,1.0,8.0,36,0.00,,,-99.99,,2013-01-30 23:52:00,
2013-01-30 16:32:00,66.0,38.0,30.29,SW,230,2.0,6.0,36,0.00,,,-99.99,,2013-01-31 00:32:00,
2013-01-30 16:42:00,66.0,38.0,30.29,SW,230,2.0,6.0,36,0.00,,,-99.99,,2013-01-31 00:42:00,
2013-01-30 16:52:00,66.0,38.0,30.29,SW,230,2.0,6.0,36,0.00,,,-99.99,,2013-01-31 00:52:00,
2013-01-30 17:21:00,65.0,39.0,30.28,SW,220,1.0,4.0,39,0.00,,,-99.99,,2013-01-31 01:21:00,
2013-01-30 17:31:00,65.0,39.0,30.28,SW,220,1.0,4.0,39,0.00,,,-99.99,,2013-01-31 01:31:00,
2013-01-30 17:41:00,65.0,39.0,30.28,SW,220,1.0,4.0,39,0.00,,,-99.99,,2013-01-31 01:41:00,
2013-01-30 17:52:00,65.0,39.0,30.28,SW,220,1.0,4.0,39,0.00,,,-99.99,,2013-01-31 01:52:00,
2013-01-30 18:21:00,58.0,39.0,30.32,West,260,2.0,3.0,50,0.00,,,-99.99,,2013-01-31 02:21:00,
2013-01-30 18:32:00,58.0,39.0,30.32,West,260,2.0,3.0,50,0.00,,,-99.99,,2013-01-31 02:32:00,
2013-01-30 18:41:00,58.0,39.0,30.32,West,260,2.0,3.0,50,0.00,,,-99.99,,2013-01-31 02:41:00,
2013-01-30 18:52:00,58.0,39.0,30.32,West,260,2.0,3.0,50,0.00,,,-99.99,,2013-01-31 02:52:00,
2013-01-30 19:21:00,54.0,39.0,30.33,WNW,300,3.0,4.0,56,0.00,,,-99.99,,2013-01-31 03:21:00,
2013-01-30 19:32:00,54.0,39.0,30.33,WNW,300,3.0,4.0,56,0.00,,,-99.99,,2013-01-31 03:32:00,
2013-01-30 19:41:00,54.0,39.0,30.33,WNW,300,3.0,4.0,56,0.00,,,-99.99,,2013-01-31 03:41:00,
2013-01-30 19:51:00,54.0,39.0,30.33,WNW,300,3.0,4.0,56,0.00,,,-99.99,,2013-01-31 03:51:00,
2013-01-30 20:22:00,53.0,39.0,30.33,North,0,0.0,2.0,60,0.00,,,-99.99,,2013-01-31 04:22:00,
2013-01-30 20:31:00,53.0,39.0,30.33,North,0,0.0,2.0,60,0.00,,,-99.99,,2013-01-31 04:31:00,
2013-01-30 20:41:00,53.0,39.0,30.33,North,0,0.0,2.0,60,0.00,,,-99.99,,2013-01-31 04:41:00,
2013-01-30 20:51:00,53.0,39.0,30.33,North,0,0.0,2.0,60,0.00,,,-99.99,,2013-01-31 04:51:00,
2013-01-30 21:22:00,50.0,39.0,30.33,NNW,330,1.0,3.0,66,0.00,,,-99.99,,2013-01-31 05:22:00,
2013-01-30 21:31:00,50.0,39.0,30.33,NNW,330,1.0,3.0,66,0.00,,,-99.99,,2013-01-31 05:31:00,
2013-01-30 21:41:00,50.0,39.0,30.33,NNW,330,1.0,3.0,66,0.00,,,-99.99,,2013-01-31 05:41:00,
2013-01-30 21:51:00,50.0,39.0,30.33,NNW,330,1.0,3.0,66,0.00,,,-99.99,,2013-01-31 05:51:00,